createdAt,value
2024-04-17T00:01:58.300Z,10.60
2024-04-17T00:04:25.061Z,11.25
2024-04-17T00:06:51.751Z,10.23
2024-04-17T00:09:18.283Z,10.93
2024-04-17T00:11:44.978Z,10.85
2024-04-17T00:14:12.938Z,10.50
2024-04-17T00:16:39.590Z,10.57
2024-04-17T00:19:06.195Z,10.95
2024-04-17T00:21:32.821Z,10.43
2024-04-17T00:23:59.383Z,10.88
2024-04-17T00:26:25.978Z,10.43
2024-04-17T00:28:52.623Z,11.45
2024-04-17T00:31:19.235Z,9.60
2024-04-17T00:33:45.923Z,10.57
2024-04-17T00:36:12.560Z,10.63
2024-04-17T00:38:39.115Z,10.73
2024-04-17T00:41:05.743Z,11.35
2024-04-17T00:43:32.334Z,9.98
2024-04-17T00:45:58.934Z,10.17
2024-04-17T00:48:25.575Z,11.25
2024-04-17T00:50:54.176Z,10.95
2024-04-17T00:53:28.514Z,10.82
2024-04-17T00:55:57.351Z,12.05
2024-04-17T00:58:24.532Z,12.37
2024-04-17T01:00:51.234Z,11.88
2024-04-17T01:03:17.875Z,12.77
2024-04-17T01:05:44.754Z,13.73
2024-04-17T01:08:11.924Z,11.95
2024-04-17T01:10:38.658Z,11.20
2024-04-17T01:13:05.412Z,12.13
2024-04-17T01:15:32.032Z,13.13
2024-04-17T01:18:00.197Z,13.18
2024-04-17T01:20:27.151Z,13.50
2024-04-17T01:22:54.300Z,12.90
2024-04-17T01:25:21.188Z,13.25
2024-04-17T01:27:47.780Z,13.93
2024-04-17T01:30:14.383Z,14.98
2024-04-17T01:32:41.515Z,14.13
2024-04-17T01:35:08.163Z,14.63
2024-04-17T01:37:34.865Z,15.20
2024-04-17T01:40:01.428Z,13.88
2024-04-17T01:42:27.983Z,13.75
2024-04-17T01:44:54.533Z,14.43
2024-04-17T01:47:21.113Z,13.67
2024-04-17T01:49:47.762Z,13.60
2024-04-17T01:52:14.290Z,14.30
2024-04-17T01:54:41.051Z,13.27
2024-04-17T01:57:07.827Z,13.50
2024-04-17T01:59:34.781Z,13.20
2024-04-17T02:04:36.754Z,12.52
2024-04-17T02:07:03.387Z,13.60
2024-04-17T02:09:29.978Z,12.57
2024-04-17T02:11:56.504Z,12.60
2024-04-17T02:14:23.063Z,11.98
2024-04-17T02:16:50.864Z,12.00
2024-04-17T02:19:17.557Z,12.57
2024-04-17T02:21:44.145Z,12.45
2024-04-17T02:24:10.676Z,12.50
2024-04-17T02:26:37.664Z,12.57
2024-04-17T02:29:04.206Z,11.85
2024-04-17T02:31:30.798Z,11.50
2024-04-17T02:33:57.358Z,12.68
2024-04-17T02:36:23.950Z,11.70
2024-04-17T02:38:50.491Z,13.30
2024-04-17T02:41:17.084Z,11.88
2024-04-17T02:43:43.665Z,12.68
2024-04-17T02:46:10.304Z,12.18
2024-04-17T02:48:36.878Z,11.13
2024-04-17T02:51:03.487Z,11.75
2024-04-17T02:53:30.059Z,11.82
2024-04-17T02:55:56.699Z,11.70
2024-04-17T02:58:23.245Z,10.95
2024-04-17T03:00:49.825Z,11.03
2024-04-17T03:03:16.570Z,10.95
2024-04-17T03:05:43.217Z,10.80
2024-04-17T03:08:09.732Z,10.48
2024-04-17T03:10:36.369Z,10.07
2024-04-17T03:13:03.048Z,10.30
2024-04-17T03:15:29.635Z,10.40
2024-04-17T03:17:57.175Z,11.90
2024-04-17T03:20:23.998Z,10.90
2024-04-17T03:22:51.537Z,10.20
2024-04-17T03:25:18.173Z,9.37
2024-04-17T03:27:44.721Z,9.95
2024-04-17T03:30:11.572Z,14.30
2024-04-17T03:32:38.168Z,9.50
2024-04-17T03:35:05.106Z,9.82
2024-04-17T03:37:31.705Z,9.17
2024-04-17T03:39:58.273Z,8.82
2024-04-17T03:42:24.827Z,8.75
2024-04-17T03:44:51.367Z,8.88
2024-04-17T03:47:17.980Z,8.95
2024-04-17T03:49:44.565Z,9.30
2024-04-17T03:52:11.132Z,8.80
2024-04-17T03:54:37.737Z,8.18
2024-04-17T03:57:04.641Z,10.15
2024-04-17T03:59:31.210Z,9.75
2024-04-17T04:01:57.995Z,9.10
2024-04-17T04:04:24.981Z,10.60
2024-04-17T04:06:51.703Z,8.23
2024-04-17T04:09:18.279Z,7.72
2024-04-17T04:11:44.844Z,7.57
2024-04-17T04:14:11.468Z,8.00
2024-04-17T04:16:38.145Z,6.88
2024-04-17T04:19:04.737Z,11.43
2024-04-17T04:21:31.322Z,9.45
2024-04-17T04:23:58.047Z,7.40
2024-04-17T04:26:24.746Z,8.70
2024-04-17T04:28:52.362Z,8.90
2024-04-17T04:31:18.961Z,7.68
2024-04-17T04:33:46.074Z,5.93
2024-04-17T04:36:12.616Z,6.80
2024-04-17T04:38:39.441Z,7.20
2024-04-17T04:41:06.448Z,6.45
2024-04-17T04:43:33.111Z,6.10
2024-04-17T04:46:00.255Z,5.60
2024-04-17T04:48:26.843Z,6.07
2024-04-17T04:50:53.843Z,5.80
2024-04-17T04:53:20.579Z,5.53
2024-04-17T04:56:01.396Z,5.43
2024-04-17T04:58:28.068Z,5.50
2024-04-17T05:00:55.866Z,5.50
2024-04-17T05:03:23.549Z,4.93
2024-04-17T05:05:50.270Z,5.25
2024-04-17T05:08:17.511Z,6.05
2024-04-17T05:10:44.119Z,10.90
2024-04-17T05:13:11.087Z,9.40
2024-04-17T05:15:37.699Z,9.70
2024-04-17T05:18:04.387Z,8.50
2024-04-17T05:20:33.482Z,6.60
2024-04-17T05:23:03.301Z,6.40
2024-04-17T05:25:30.061Z,6.30
2024-04-17T05:27:56.753Z,6.63
2024-04-17T05:30:23.299Z,5.15
2024-04-17T05:32:50.021Z,5.85
2024-04-17T05:35:20.801Z,5.57
2024-04-17T05:37:47.374Z,6.60
2024-04-17T05:40:14.056Z,7.70
2024-04-17T05:42:40.713Z,6.05
2024-04-17T05:45:07.633Z,5.85
2024-04-17T05:47:34.335Z,8.20
2024-04-17T05:50:05.167Z,6.35
2024-04-17T05:52:34.357Z,6.03
2024-04-17T05:55:01.063Z,5.70
2024-04-17T05:57:27.712Z,7.93
2024-04-17T05:59:54.338Z,9.40
2024-04-17T06:02:20.914Z,7.75
2024-04-17T06:04:47.511Z,7.40
2024-04-17T06:07:14.141Z,7.07
2024-04-17T06:09:40.785Z,6.45
2024-04-17T06:12:07.529Z,12.10
2024-04-17T06:14:34.104Z,6.18
2024-04-17T06:17:00.696Z,9.00
2024-04-17T06:19:27.329Z,4.90
2024-04-17T06:21:55.272Z,4.30
2024-04-17T06:24:23.417Z,4.60
2024-04-17T06:26:52.495Z,4.18
2024-04-17T06:29:19.072Z,3.90
2024-04-17T06:31:48.063Z,4.20
2024-04-17T06:34:14.877Z,4.57
2024-04-17T06:36:41.734Z,4.13
2024-04-17T06:39:08.316Z,4.20
2024-04-17T06:41:43.256Z,4.67
2024-04-17T06:44:18.479Z,3.83
2024-04-17T06:46:45.117Z,4.10
2024-04-17T06:49:16.265Z,3.90
2024-04-17T06:51:42.945Z,3.85
2024-04-17T06:54:09.488Z,3.47
2024-04-17T06:56:38.473Z,3.42
2024-04-17T06:59:05.082Z,4.15
2024-04-17T07:01:31.727Z,3.28
2024-04-17T07:03:58.448Z,3.47
2024-04-17T07:06:25.154Z,5.90
2024-04-17T07:08:51.754Z,4.57
2024-04-17T07:11:18.485Z,7.07
2024-04-17T07:14:27.917Z,6.55
2024-04-17T07:22:22.388Z,3.72
2024-04-17T07:24:48.992Z,3.55
2024-04-17T07:27:15.620Z,4.68
2024-04-17T07:29:42.158Z,6.20
2024-04-17T07:32:08.964Z,3.60
2024-04-17T07:34:35.646Z,7.15
2024-04-17T07:37:03.826Z,6.25
2024-04-17T07:39:30.486Z,4.80
2024-04-17T07:41:57.092Z,13.70
2024-04-17T07:44:23.714Z,3.83
2024-04-17T07:46:50.344Z,3.42
2024-04-17T07:49:17.547Z,3.70
2024-04-17T07:51:44.131Z,4.32
2024-04-17T07:54:10.749Z,3.97
2024-04-17T07:56:37.306Z,5.40
2024-04-17T07:59:04.428Z,3.45
2024-04-17T08:01:31.114Z,3.10
2024-04-17T08:03:57.742Z,2.92
2024-04-17T08:06:24.323Z,2.67
2024-04-17T08:08:51.192Z,2.63
2024-04-17T08:11:23.931Z,2.92
2024-04-17T08:13:52.651Z,2.92
2024-04-17T08:16:19.283Z,3.25
2024-04-17T08:18:45.958Z,2.50
2024-04-17T08:21:12.618Z,2.60
2024-04-17T08:23:40.571Z,2.40
2024-04-17T08:26:07.501Z,2.42
2024-04-17T08:28:34.155Z,2.55
2024-04-17T08:31:01.170Z,2.00
2024-04-17T08:33:27.949Z,2.30
2024-04-17T08:35:54.712Z,2.20
2024-04-17T08:38:21.379Z,2.08
2024-04-17T08:40:48.285Z,2.00
2024-04-17T08:43:36.815Z,2.30
2024-04-17T08:46:03.945Z,2.30
2024-04-17T08:48:32.869Z,2.15
2024-04-17T08:51:01.192Z,2.35
2024-04-17T08:53:28.975Z,2.35
2024-04-17T08:55:56.594Z,2.17
2024-04-17T08:58:23.257Z,2.00
2024-04-17T09:00:51.907Z,2.22
2024-04-17T09:03:23.982Z,2.10
2024-04-17T09:05:55.666Z,1.80
2024-04-17T09:08:23.367Z,1.60
2024-04-17T09:10:50.553Z,1.53
2024-04-17T09:13:18.006Z,2.33
2024-04-17T09:15:44.672Z,2.00
2024-04-17T09:18:11.979Z,1.65
2024-04-17T09:20:38.669Z,1.60
2024-04-17T09:23:12.029Z,1.63
2024-04-17T09:25:39.107Z,1.55
2024-04-17T09:28:06.582Z,1.90
2024-04-17T09:30:33.127Z,1.80
2024-04-17T09:33:00.475Z,1.80
2024-04-17T09:35:28.689Z,2.00
2024-04-17T09:37:55.494Z,1.70
2024-04-17T09:40:22.259Z,1.70
2024-04-17T09:42:52.900Z,2.05
2024-04-17T09:45:25.962Z,1.75
2024-04-17T09:47:56.602Z,1.60
2024-04-17T09:50:26.896Z,1.65
2024-04-17T09:52:59.969Z,1.80
2024-04-17T09:55:31.051Z,1.80
2024-04-17T09:57:58.775Z,1.60
2024-04-17T10:00:25.983Z,1.90
2024-04-17T10:02:55.289Z,1.80
2024-04-17T10:05:23.760Z,2.08
2024-04-17T10:07:51.576Z,2.60
2024-04-17T10:10:19.556Z,2.40
2024-04-17T10:12:48.203Z,2.50
2024-04-17T10:15:14.922Z,2.25
2024-04-17T10:17:41.936Z,2.15
2024-04-17T10:20:26.987Z,2.30
2024-04-17T10:23:03.127Z,3.85
2024-04-17T10:25:38.412Z,2.63
2024-04-17T10:28:16.308Z,2.55
2024-04-17T10:30:44.485Z,2.53
2024-04-17T10:33:21.234Z,2.28
2024-04-17T10:35:50.226Z,2.60
2024-04-17T10:38:28.276Z,2.43
2024-04-17T10:40:59.257Z,1.83
2024-04-17T10:43:27.273Z,2.10
2024-04-17T10:46:06.135Z,2.03
2024-04-17T10:48:43.466Z,1.88
2024-04-17T10:51:11.016Z,2.30
2024-04-17T10:53:38.726Z,2.10
2024-04-17T10:56:05.800Z,2.28
2024-04-17T10:58:34.619Z,2.70
2024-04-17T11:01:02.624Z,2.47
2024-04-17T11:03:29.311Z,2.20
2024-04-17T11:05:56.531Z,2.10
2024-04-17T11:08:23.235Z,2.20
2024-04-17T11:10:49.870Z,2.30
2024-04-17T11:13:19.804Z,2.70
2024-04-17T11:15:46.402Z,2.53
2024-04-17T11:18:13.124Z,2.70
2024-04-17T11:20:40.842Z,2.72
2024-04-17T11:23:11.055Z,3.00
2024-04-17T11:25:38.669Z,3.60
2024-04-17T11:28:05.431Z,3.10
2024-04-17T11:30:32.144Z,3.33
2024-04-17T11:33:03.836Z,3.95
2024-04-17T11:35:30.542Z,4.65
2024-04-17T11:37:57.397Z,4.20
2024-04-17T11:40:25.230Z,4.33
2024-04-17T11:42:52.236Z,4.63
2024-04-17T11:45:18.960Z,4.60
2024-04-17T11:47:45.714Z,4.82
2024-04-17T11:50:12.909Z,4.65
2024-04-17T11:52:40.448Z,4.80
2024-04-17T11:55:07.217Z,4.65
2024-04-17T11:57:33.952Z,3.60
2024-04-17T12:00:00.560Z,3.75
2024-04-17T12:02:27.140Z,3.90
2024-04-17T12:04:53.807Z,4.00
2024-04-17T12:07:20.571Z,3.70
2024-04-17T12:09:50.104Z,4.10
2024-04-17T12:12:20.006Z,3.13
2024-04-17T12:14:46.581Z,3.20
2024-04-17T12:17:13.719Z,3.13
2024-04-17T12:19:40.377Z,2.88
2024-04-17T12:22:06.961Z,2.70
2024-04-17T12:24:52.085Z,3.72
2024-04-17T12:27:18.763Z,6.25
2024-04-17T12:29:45.505Z,9.80
2024-04-17T12:32:12.210Z,3.95
2024-04-17T12:34:39.497Z,2.97
2024-04-17T12:37:06.234Z,1.63
2024-04-17T12:39:32.806Z,1.48
2024-04-17T12:41:59.359Z,1.60
2024-04-17T12:44:25.933Z,1.40
2024-04-17T12:46:54.269Z,1.55
2024-04-17T12:49:20.959Z,2.10
2024-04-17T12:51:47.609Z,1.80
2024-04-17T12:54:15.387Z,2.20
2024-04-17T12:56:43.323Z,2.10
2024-04-17T12:59:10.859Z,2.38
2024-04-17T13:01:37.552Z,1.60
2024-04-17T13:04:04.204Z,2.20
2024-04-17T13:06:30.792Z,1.43
2024-04-17T13:08:57.360Z,1.50
2024-04-17T13:11:24.152Z,1.70
2024-04-17T13:13:55.666Z,1.60
2024-04-17T13:16:22.299Z,1.60
2024-04-17T13:18:51.716Z,1.70
2024-04-17T13:21:18.406Z,2.10
2024-04-17T13:23:45.110Z,2.05
2024-04-17T13:26:11.933Z,2.30
2024-04-17T13:28:38.847Z,1.98
2024-04-17T13:31:08.042Z,1.60
2024-04-17T13:33:39.379Z,1.90
2024-04-17T13:36:08.277Z,1.83
2024-04-17T13:38:35.249Z,1.90
2024-04-17T13:41:07.017Z,2.30
2024-04-17T13:43:35.386Z,2.40
2024-04-17T13:46:13.232Z,2.30
2024-04-17T13:48:40.202Z,1.75
2024-04-17T13:51:08.404Z,1.98
2024-04-17T13:53:35.928Z,1.83
2024-04-17T13:56:02.944Z,2.10
2024-04-17T13:58:30.050Z,2.20
2024-04-17T14:00:57.786Z,1.30
2024-04-17T14:03:26.143Z,1.63
2024-04-17T14:05:54.114Z,1.77
2024-04-17T14:08:23.281Z,1.80
2024-04-17T14:10:51.359Z,1.80
2024-04-17T14:13:18.639Z,1.80
2024-04-17T14:15:45.326Z,1.92
2024-04-17T14:18:12.075Z,2.00
2024-04-17T14:20:39.456Z,10.03
2024-04-17T14:23:06.741Z,2.65
2024-04-17T14:25:33.982Z,2.13
2024-04-17T14:28:00.650Z,2.10
2024-04-17T14:30:27.313Z,2.03
2024-04-17T14:32:53.938Z,3.27
2024-04-17T14:35:22.149Z,6.47
2024-04-17T14:37:48.837Z,4.55
2024-04-17T14:40:15.632Z,2.60
2024-04-17T14:42:43.021Z,2.25
2024-04-17T14:45:09.772Z,2.33
2024-04-17T14:47:36.430Z,2.33
2024-04-17T14:50:03.103Z,2.35
2024-04-17T14:52:29.680Z,2.42
2024-04-17T14:54:57.161Z,2.75
2024-04-17T14:57:23.784Z,2.70
2024-04-17T14:59:50.428Z,2.70
2024-04-17T15:02:16.991Z,1.88
2024-04-17T15:04:43.604Z,1.50
2024-04-17T15:07:10.154Z,1.58
2024-04-17T15:09:36.840Z,1.43
2024-04-17T15:12:03.697Z,1.95
2024-04-17T15:14:30.351Z,1.63
2024-04-17T15:16:56.978Z,1.40
2024-04-17T15:19:24.389Z,2.40
2024-04-17T15:21:51.027Z,1.47
2024-04-17T15:24:18.977Z,1.80
2024-04-17T15:26:45.622Z,1.60
2024-04-17T15:29:12.239Z,1.73
2024-04-17T15:31:38.821Z,1.85
2024-04-17T15:34:05.397Z,1.73
2024-04-17T15:36:32.325Z,1.80
2024-04-17T15:38:59.102Z,1.98
2024-04-17T15:41:25.722Z,2.10
2024-04-17T15:43:55.033Z,2.10
2024-04-17T15:46:21.659Z,1.90
2024-04-17T15:48:48.509Z,1.95
2024-04-17T15:51:17.848Z,2.03
2024-04-17T15:53:46.457Z,1.95
2024-04-17T15:56:18.610Z,2.00
2024-04-17T15:58:46.209Z,1.90
2024-04-17T16:01:14.882Z,2.05
2024-04-17T16:03:42.057Z,2.30
2024-04-17T16:06:14.263Z,2.00
2024-04-17T16:08:42.400Z,2.55
2024-04-17T16:11:10.301Z,3.00
2024-04-17T16:13:38.971Z,2.42
2024-04-17T16:16:07.429Z,2.40
2024-04-17T16:18:35.526Z,2.08
2024-04-17T16:21:13.440Z,2.40
2024-04-17T16:23:40.250Z,15.50
2024-04-17T16:26:18.096Z,3.67
2024-04-17T16:28:47.632Z,2.90
2024-04-17T16:31:36.234Z,2.70
2024-04-17T16:36:49.234Z,2.60
2024-04-17T16:39:15.862Z,6.28
2024-04-17T16:41:43.711Z,3.80
2024-04-17T16:44:10.278Z,5.38
2024-04-17T16:46:36.844Z,2.42
2024-04-17T16:49:04.905Z,2.60
2024-04-17T16:51:31.769Z,2.50
2024-04-17T16:53:58.392Z,3.15
2024-04-17T16:56:25.227Z,2.83
2024-04-17T16:58:55.124Z,5.28
2024-04-17T17:01:21.760Z,3.30
2024-04-17T17:03:48.398Z,3.08
2024-04-17T17:06:15.152Z,2.83
2024-04-17T17:08:41.801Z,2.50
2024-04-17T17:11:08.578Z,2.78
2024-04-17T17:13:36.037Z,2.90
2024-04-17T17:16:04.486Z,3.03
2024-04-17T17:18:31.654Z,2.90
2024-04-17T17:20:59.621Z,2.70
2024-04-17T17:23:30.432Z,2.47
2024-04-17T17:25:57.519Z,2.07
2024-04-17T17:28:27.475Z,2.15
2024-04-17T17:31:03.060Z,2.20
2024-04-17T17:33:30.570Z,2.38
2024-04-17T17:36:13.100Z,2.22
2024-04-17T17:38:40.217Z,2.33
2024-04-17T17:41:10.788Z,2.08
2024-04-17T17:43:40.882Z,4.85
2024-04-17T17:46:12.693Z,2.40
2024-04-17T17:48:41.039Z,2.00
2024-04-17T17:51:12.712Z,1.60
2024-04-17T17:53:45.864Z,1.95
2024-04-17T17:56:17.511Z,2.10
2024-04-17T17:58:52.055Z,3.25
2024-04-17T18:01:27.999Z,3.55
2024-04-17T18:03:58.261Z,2.10
2024-04-17T18:06:25.215Z,2.03
2024-04-17T18:08:57.552Z,2.10
2024-04-17T18:11:29.486Z,2.05
2024-04-17T18:14:00.636Z,2.03
2024-04-17T18:16:37.154Z,2.10
2024-04-17T18:19:06.902Z,1.70
2024-04-17T18:21:33.663Z,1.95
2024-04-17T18:24:00.400Z,1.90
2024-04-17T18:26:27.892Z,1.98
2024-04-17T18:28:55.171Z,4.50
2024-04-17T18:31:22.574Z,5.05
2024-04-17T18:33:57.347Z,2.50
2024-04-17T18:36:30.574Z,3.20
2024-04-17T18:39:01.046Z,13.60
2024-04-17T18:41:31.105Z,27.43
2024-04-17T18:44:05.348Z,73.85
2024-04-17T18:46:39.537Z,49.08
2024-04-17T18:49:11.762Z,167.65
2024-04-17T18:51:38.422Z,46.33
2024-04-17T18:54:05.313Z,20.70
2024-04-17T18:56:31.928Z,12.63
2024-04-17T18:58:59.368Z,20.85
2024-04-17T19:01:26.525Z,14.52
2024-04-17T19:04:02.603Z,27.83
2024-04-17T19:06:29.319Z,22.80
2024-04-17T19:08:56.017Z,16.10
2024-04-17T19:11:22.680Z,45.15
2024-04-17T19:13:49.343Z,35.55
2024-04-17T19:16:20.892Z,30.95
2024-04-17T19:18:49.710Z,20.37
2024-04-17T19:21:17.877Z,16.20
2024-04-17T19:23:45.875Z,11.23
2024-04-17T19:26:14.152Z,17.10
2024-04-17T19:28:41.041Z,3.92
2024-04-17T19:31:08.026Z,12.27
2024-04-17T19:33:44.590Z,5.63
2024-04-17T19:36:12.688Z,7.13
2024-04-17T19:38:43.658Z,7.22
2024-04-17T19:41:11.651Z,3.90
2024-04-17T19:43:39.372Z,9.13
2024-04-17T19:46:10.911Z,10.68
2024-04-17T19:48:44.014Z,9.30
2024-04-17T19:51:15.587Z,11.48
2024-04-17T19:53:46.517Z,12.05
2024-04-17T19:56:14.170Z,4.37
2024-04-17T19:58:40.989Z,4.40
2024-04-17T20:01:10.883Z,4.20
2024-04-17T20:03:43.815Z,4.95
2024-04-17T20:06:13.499Z,3.75
2024-04-17T20:08:43.811Z,3.63
2024-04-17T20:11:13.825Z,3.40
2024-04-17T20:13:40.640Z,2.58
2024-04-17T20:16:09.078Z,3.88
2024-04-17T20:18:37.605Z,2.20
2024-04-17T20:21:10.290Z,2.53
2024-04-17T20:23:46.700Z,2.20
2024-04-17T20:26:16.437Z,2.88
2024-04-17T20:28:52.118Z,2.10
2024-04-17T20:31:25.001Z,2.20
2024-04-17T20:33:54.306Z,1.93
2024-04-17T20:36:31.840Z,2.47
2024-04-17T20:38:58.504Z,3.67
2024-04-17T20:41:29.418Z,3.75
2024-04-17T20:43:56.214Z,3.75
2024-04-17T20:46:23.062Z,3.33
2024-04-17T20:48:52.126Z,6.20
2024-04-17T20:51:19.251Z,2.63
2024-04-17T20:53:48.957Z,2.50
2024-04-17T20:56:15.882Z,3.00
2024-04-17T20:58:42.458Z,3.70
2024-04-17T21:01:10.595Z,4.53
2024-04-17T21:03:38.612Z,4.40
2024-04-17T21:06:14.469Z,4.28
2024-04-17T21:08:42.770Z,2.60
2024-04-17T21:11:11.552Z,2.30
2024-04-17T21:13:39.247Z,2.90
2024-04-17T21:16:11.554Z,2.63
2024-04-17T21:18:38.681Z,2.58
2024-04-17T21:21:06.705Z,2.75
2024-04-17T21:23:35.034Z,2.70
2024-04-17T21:26:01.839Z,2.80
2024-04-17T21:28:28.647Z,3.10
2024-04-17T21:30:58.003Z,2.75
2024-04-17T21:33:28.883Z,3.00
2024-04-17T21:35:55.805Z,3.20
2024-04-17T21:38:22.860Z,2.95
2024-04-17T21:40:58.586Z,2.92
2024-04-17T21:43:26.891Z,3.20
2024-04-17T21:45:55.861Z,3.30
2024-04-17T21:48:22.753Z,3.40
2024-04-17T21:50:49.880Z,3.13
2024-04-17T21:53:16.722Z,2.72
2024-04-17T21:55:43.313Z,3.00
2024-04-17T21:58:09.973Z,3.15
2024-04-17T22:00:39.797Z,3.50
2024-04-17T22:03:08.409Z,3.35
2024-04-17T22:05:35.138Z,3.00
2024-04-17T22:08:01.950Z,3.25
2024-04-17T22:10:29.459Z,3.15
2024-04-17T22:12:56.068Z,3.33
2024-04-17T22:15:22.681Z,3.33
2024-04-17T22:17:49.339Z,3.05
2024-04-17T22:20:15.953Z,3.83
2024-04-17T22:22:42.555Z,3.83
2024-04-17T22:25:09.179Z,3.87
2024-04-17T22:27:35.784Z,4.70
2024-04-17T22:30:02.467Z,4.13
2024-04-17T22:32:29.053Z,4.70
2024-04-17T22:34:55.623Z,4.50
2024-04-17T22:37:23.679Z,2.83
2024-04-17T22:39:50.263Z,3.20
2024-04-17T22:42:16.860Z,2.97
2024-04-17T22:44:43.559Z,3.30
2024-04-17T22:47:10.202Z,3.10
2024-04-17T22:49:36.835Z,2.90
2024-04-17T22:52:03.643Z,2.83
2024-04-17T22:54:30.427Z,3.17
2024-04-17T22:56:59.931Z,3.20
2024-04-17T22:59:26.847Z,3.25
2024-04-17T23:01:53.478Z,3.07
2024-04-17T23:04:20.077Z,3.22
2024-04-17T23:06:46.725Z,3.70
2024-04-17T23:09:13.309Z,3.30
2024-04-17T23:11:39.892Z,3.30
2024-04-17T23:14:06.559Z,3.47
2024-04-17T23:16:33.153Z,3.30
2024-04-17T23:19:08.706Z,3.40
2024-04-17T23:21:43.460Z,2.95
2024-04-17T23:24:10.198Z,3.72
2024-04-17T23:26:36.785Z,3.40
2024-04-17T23:29:03.409Z,3.30
2024-04-17T23:31:29.941Z,3.70
2024-04-17T23:33:56.518Z,2.97
2024-04-17T23:36:23.456Z,3.20
2024-04-17T23:38:50.155Z,3.43
2024-04-17T23:41:16.700Z,3.53
2024-04-17T23:43:44.034Z,3.40
2024-04-17T23:46:10.656Z,3.35
2024-04-17T23:48:37.233Z,3.50
2024-04-17T23:51:04.064Z,3.50
2024-04-17T23:53:30.643Z,3.50
2024-04-17T23:55:57.218Z,3.88
2024-04-17T23:58:23.773Z,4.00
